Time;durP1;ratioP1;P1;durP2;ratioP2;P2;SDS_P1;SDS_P2;PMS_P1;PMS_P2;Temp;Humidity;BMP_temperature;BMP_pressure;BME280_temperature;BME280_humidity;BME280_pressure;Samples;Min_cycle;Max_cycle;Signal;HPM_P1;HPM_P2
2023/01/25 00:01:58;;;;;;;37.05;19.10;;;;;;;-2.24;86.34;103223.19;5116261;28;20126;-64
2023/01/25 00:04:25;;;;;;;34.03;16.92;;;;;;;-2.16;86.19;103223.13;5115906;28;20055;-63
2023/01/25 00:06:52;;;;;;;39.08;17.88;;;;;;;-2.09;85.48;103216.91;5097992;28;20048;-63
2023/01/25 00:09:19;;;;;;;35.40;17.75;;;;;;;-2.19;86.56;103212.66;5115532;28;20034;-64
2023/01/25 00:11:46;;;;;;;30.75;17.02;;;;;;;-2.16;85.59;103197.69;5115849;28;20111;-66
2023/01/25 00:14:14;;;;;;;33.35;17.77;;;;;;;-2.15;86.03;103190.69;5116122;28;20096;-63
2023/01/25 00:16:41;;;;;;;37.25;17.95;;;;;;;-2.26;86.84;103190.81;5115897;28;20059;-63
2023/01/25 00:19:08;;;;;;;38.30;19.02;;;;;;;-2.24;87.52;103189.00;5116127;28;20051;-62
2023/01/25 00:21:35;;;;;;;38.17;18.85;;;;;;;-2.20;86.77;103192.47;5115552;28;20055;-63
2023/01/25 00:24:03;;;;;;;37.72;18.42;;;;;;;-2.14;86.50;103189.78;5115505;28;20035;-64
2023/01/25 00:26:31;;;;;;;38.10;17.65;;;;;;;-2.11;86.77;103184.50;5115849;28;20044;-63
2023/01/25 00:28:57;;;;;;;42.83;19.55;;;;;;;-2.04;86.40;103170.38;5116081;28;20116;-63
2023/01/25 00:31:33;;;;;;;43.40;19.92;;;;;;;-2.08;86.59;103165.19;5116551;28;20044;-62
2023/01/25 00:34:23;;;;;;;39.10;20.25;;;;;;;-2.04;86.30;103154.59;5115260;28;20040;-63
2023/01/25 00:36:56;;;;;;;38.50;19.25;;;;;;;-2.06;86.20;103145.88;5114987;28;20052;-63
2023/01/25 00:39:25;;;;;;;41.17;20.45;;;;;;;-2.07;86.67;103136.22;5115894;28;20048;-64
2023/01/25 00:41:52;;;;;;;40.25;19.63;;;;;;;-2.02;86.07;103131.78;5115822;28;20036;-63
2023/01/25 00:44:19;;;;;;;35.13;19.15;;;;;;;-1.98;86.07;103122.94;5115676;28;20043;-63
2023/01/25 00:46:46;;;;;;;38.95;19.13;;;;;;;-1.95;86.12;103109.75;5115914;28;20081;-65
2023/01/25 00:49:21;;;;;;;36.80;19.08;;;;;;;-1.85;85.86;103105.25;5099035;28;20051;-66
2023/01/25 00:51:48;;;;;;;39.63;19.90;;;;;;;-1.95;86.42;103108.91;5092199;28;20126;-65
2023/01/25 00:54:15;;;;;;;40.88;19.10;;;;;;;-1.91;86.83;103106.19;5090451;28;19920;-65
2023/01/25 00:56:42;;;;;;;39.08;20.63;;;;;;;-1.96;87.03;103100.09;5091280;28;20407;-65
2023/01/25 00:59:09;;;;;;;41.65;20.63;;;;;;;-1.79;86.56;103099.00;5091878;28;20046;-65
2023/01/25 01:01:36;;;;;;;42.65;20.52;;;;;;;-1.83;86.14;103100.81;5092368;28;20062;-64
2023/01/25 01:04:03;;;;;;;47.45;22.23;;;;;;;-1.83;86.21;103105.22;5091823;28;20400;-65
2023/01/25 01:06:34;;;;;;;45.30;21.58;;;;;;;-1.80;86.35;103098.16;5074682;28;20097;-65
2023/01/25 01:09:01;;;;;;;44.85;20.67;;;;;;;-1.82;86.41;103107.81;5092030;28;20052;-64
2023/01/25 01:11:30;;;;;;;49.72;22.23;;;;;;;-1.87;86.55;103107.88;5091494;28;20396;-65
2023/01/25 01:13:57;;;;;;;47.60;21.17;;;;;;;-1.92;87.23;103117.63;5090897;28;20074;-65
2023/01/25 01:16:24;;;;;;;54.00;22.95;;;;;;;-1.97;87.94;103122.06;5091843;28;20050;-64
2023/01/25 01:18:51;;;;;;;45.70;21.77;;;;;;;-1.89;87.86;103116.69;5090137;28;20479;-65
2023/01/25 01:21:18;;;;;;;41.75;20.35;;;;;;;-1.88;87.64;103123.72;5092978;28;20075;-65
2023/01/25 01:23:45;;;;;;;43.15;20.98;;;;;;;-1.89;87.87;103112.31;5093881;28;20502;-66
2023/01/25 01:26:13;;;;;;;47.22;22.05;;;;;;;-1.98;88.29;103109.81;5092507;28;20040;-65
2023/01/25 01:28:41;;;;;;;41.67;21.45;;;;;;;-1.95;88.59;103115.03;5076138;28;20048;-65
2023/01/25 01:31:11;;;;;;;40.75;22.17;;;;;;;-1.95;88.19;103108.91;5093654;28;20090;-64
2023/01/25 01:33:37;;;;;;;49.13;22.15;;;;;;;-1.95;88.60;103106.28;5092191;28;20052;-66
2023/01/25 01:36:14;;;;;;;45.40;22.55;;;;;;;-1.93;89.05;103105.34;5092003;28;20051;-65
2023/01/25 01:38:42;;;;;;;44.90;21.88;;;;;;;-1.90;88.93;103109.69;5092739;28;20052;-65
2023/01/25 01:41:09;;;;;;;42.75;22.38;;;;;;;-1.92;89.32;103100.97;5103128;28;20032;-63
2023/01/25 01:43:36;;;;;;;42.03;22.35;;;;;;;-1.99;89.91;103108.06;5114456;28;20047;-63
2023/01/25 01:46:04;;;;;;;47.67;24.13;;;;;;;-2.03;90.45;103103.72;5114772;28;20071;-63
2023/01/25 01:48:40;;;;;;;41.25;22.65;;;;;;;-1.95;90.24;103101.00;5114870;28;20058;-64
2023/01/25 01:51:18;;;;;;;46.45;24.38;;;;;;;-1.87;89.41;103099.13;5112279;28;20122;-64
2023/01/25 01:53:53;;;;;;;43.75;23.25;;;;;;;-1.87;89.52;103105.25;5114882;28;20032;-63
2023/01/25 01:56:53;;;;;;;43.53;23.77;;;;;;;-1.88;89.67;103102.66;5114507;28;20111;-66
2023/01/25 01:59:24;;;;;;;45.95;22.10;;;;;;;-1.90;90.23;103094.78;5108183;28;20046;-64
2023/01/25 02:01:51;;;;;;;46.93;22.43;;;;;;;-1.90;90.14;103091.28;5114686;28;20032;-68
2023/01/25 02:04:19;;;;;;;44.50;22.75;;;;;;;-1.81;90.09;103093.78;5114009;28;20319;-62
2023/01/25 02:07:22;;;;;;;41.70;21.42;;;;;;;-1.75;89.87;103093.72;5115150;28;20028;-64
2023/01/25 02:09:50;;;;;;;41.08;21.05;;;;;;;-1.83;90.32;103097.31;5090457;28;20046;-65
2023/01/25 02:12:19;;;;;;;38.78;22.58;;;;;;;-1.79;90.48;103091.13;5090058;28;20404;-65
2023/01/25 02:14:51;;;;;;;43.55;22.98;;;;;;;-1.70;89.83;103091.00;5092860;28;20488;-65
2023/01/25 02:17:30;;;;;;;43.33;22.08;;;;;;;-1.74;90.12;103094.56;5092463;28;20044;-66
2023/01/25 02:20:14;;;;;;;39.80;21.75;;;;;;;-1.74;90.32;103094.56;5092465;28;20396;-65
2023/01/25 02:23:09;;;;;;;46.10;23.27;;;;;;;-1.69;90.51;103084.81;5090966;28;20126;-65
2023/01/25 02:25:36;;;;;;;47.80;23.48;;;;;;;-1.74;90.20;103091.94;5078208;28;20135;-65
2023/01/25 02:28:14;;;;;;;44.92;23.80;;;;;;;-1.67;89.82;103083.06;5090916;28;20044;-73
2023/01/25 02:30:42;;;;;;;43.28;22.92;;;;;;;-1.61;89.53;103077.72;5091146;28;20509;-67
2023/01/25 02:33:09;;;;;;;44.35;23.70;;;;;;;-1.67;89.95;103080.44;5090637;28;20047;-75
2023/01/25 02:35:43;;;;;;;49.13;24.55;;;;;;;-1.63;89.82;103074.22;5091933;28;20488;-64
2023/01/25 02:38:13;;;;;;;55.00;24.75;;;;;;;-1.63;89.52;103075.09;5091544;28;20044;-64
2023/01/25 02:41:06;;;;;;;42.33;24.67;;;;;;;-1.66;90.20;103080.38;5091155;28;20573;-65
2023/01/25 02:43:34;;;;;;;49.03;24.92;;;;;;;-1.68;89.97;103073.41;5052336;28;20130;-72
2023/01/25 02:46:31;;;;;;;46.00;23.48;;;;;;;-1.82;90.57;103072.75;5091677;28;20080;-65
2023/01/25 02:48:59;;;;;;;47.08;25.58;;;;;;;-1.69;90.85;103069.91;5089558;28;20488;-65
2023/01/25 02:51:28;;;;;;;48.78;24.63;;;;;;;-1.76;90.65;103065.63;5090186;28;20117;-68
2023/01/25 02:53:54;;;;;;;50.00;25.70;;;;;;;-1.65;89.63;103062.81;5089864;28;20402;-67
2023/01/25 02:56:21;;;;;;;47.10;24.23;;;;;;;-1.63;89.59;103066.31;5090673;28;20048;-65
2023/01/25 02:58:48;;;;;;;44.95;24.23;;;;;;;-1.68;90.13;103065.50;5092664;28;20044;-64
2023/01/25 03:01:15;;;;;;;42.50;23.50;;;;;;;-1.82;90.90;103067.47;5091713;28;20591;-65
2023/01/25 03:03:42;;;;;;;43.40;21.90;;;;;;;-1.74;91.29;103058.59;5091762;28;20147;-65
2023/01/25 03:06:09;;;;;;;44.75;22.98;;;;;;;-1.66;90.69;103058.47;5091755;28;20127;-66
2023/01/25 03:08:36;;;;;;;50.65;24.45;;;;;;;-1.78;90.92;103061.28;5092305;28;20123;-66
2023/01/25 03:11:05;;;;;;;40.67;22.40;;;;;;;-1.87;91.71;103060.53;5092025;28;20059;-64
2023/01/25 03:13:32;;;;;;;48.80;24.85;;;;;;;-1.78;92.01;103063.91;5091520;28;20044;-64
2023/01/25 03:16:05;;;;;;;47.67;25.52;;;;;;;-1.67;91.03;103059.38;5090878;28;20097;-65
2023/01/25 03:18:33;;;;;;;48.53;25.63;;;;;;;-1.71;90.57;103055.06;5091901;28;20462;-65
2023/01/25 03:21:07;;;;;;;41.22;21.35;;;;;;;-1.76;91.56;103047.22;5093131;28;20060;-65
2023/01/25 03:23:34;;;;;;;44.72;22.45;;;;;;;-1.76;91.49;103044.56;5095367;28;20052;-65
2023/01/25 03:26:15;;;;;;;35.88;18.45;;;;;;;-1.77;91.52;103044.63;5094603;28;20050;-65
2023/01/25 03:28:42;;;;;;;25.65;15.05;;;;;;;-1.74;92.51;103052.47;5094796;28;20079;-65
2023/01/25 03:31:10;;;;;;;43.13;23.10;;;;;;;-1.75;92.33;103043.69;5095821;28;20044;-65
2023/01/25 03:33:38;;;;;;;47.72;25.40;;;;;;;-1.88;93.40;103037.75;5094228;28;20108;-65
2023/01/25 03:36:05;;;;;;;52.72;25.65;;;;;;;-1.77;92.38;103041.97;5094844;28;20475;-65
2023/01/25 03:38:33;;;;;;;39.15;18.48;;;;;;;-1.79;92.07;103033.22;5088491;28;20059;-67
2023/01/25 03:41:00;;;;;;;43.70;21.60;;;;;;;-1.81;92.48;103027.13;5095148;28;20028;-65
2023/01/25 03:43:26;;;;;;;41.30;20.45;;;;;;;-1.75;91.95;103033.19;5095914;28;20048;-65
2023/01/25 03:45:55;;;;;;;39.83;20.10;;;;;;;-1.77;92.55;103031.47;5094047;28;20048;-67
2023/01/25 03:48:23;;;;;;;26.02;14.82;;;;;;;-1.71;92.22;103034.00;5094885;28;20044;-65
2023/01/25 03:50:52;;;;;;;26.95;12.98;;;;;;;-1.79;92.92;103035.84;5095152;28;20050;-64
2023/01/25 03:53:31;;;;;;;30.98;14.05;;;;;;;-1.84;94.44;103032.44;5094750;28;20505;-64
2023/01/25 03:56:07;;;;;;;45.40;22.60;;;;;;;-1.80;93.97;103026.25;5077257;28;20402;-65
2023/01/25 03:58:35;;;;;;;48.83;24.48;;;;;;;-2.10;94.95;103024.06;5094979;28;20630;-65
2023/01/25 04:01:03;;;;;;;48.17;24.05;;;;;;;-2.03;95.13;103019.53;5095160;28;20048;-66
2023/01/25 04:03:29;;;;;;;44.65;22.77;;;;;;;-1.81;95.00;103020.09;5095517;28;20137;-65
2023/01/25 04:05:57;;;;;;;37.20;21.38;;;;;;;-1.74;94.18;103005.09;5095019;28;20118;-65
2023/01/25 04:08:25;;;;;;;40.97;20.52;;;;;;;-1.75;93.76;103004.22;5095163;28;20040;-67
2023/01/25 04:10:53;;;;;;;31.02;16.60;;;;;;;-2.07;95.60;103001.22;5095547;28;20055;-64
2023/01/25 04:13:21;;;;;;;58.42;24.42;;;;;;;-2.01;96.57;102999.34;5094797;28;20083;-65
2023/01/25 04:15:48;;;;;;;41.65;18.88;;;;;;;-1.88;96.26;102998.28;5094294;28;20050;-65
2023/01/25 04:18:15;;;;;;;37.03;19.80;;;;;;;-1.84;95.77;102988.59;5095098;28;20055;-65
2023/01/25 04:20:42;;;;;;;33.15;16.98;;;;;;;-1.87;95.42;102978.97;5093930;28;20419;-64
2023/01/25 04:23:09;;;;;;;31.15;16.98;;;;;;;-1.86;95.80;102975.44;5094462;28;20140;-64
2023/01/25 04:25:36;;;;;;;28.48;15.05;;;;;;;-2.12;98.01;102978.47;5093864;28;20060;-65
2023/01/25 04:28:03;;;;;;;36.08;19.65;;;;;;;-2.00;98.04;102977.41;5094477;28;20173;-65
2023/01/25 04:30:30;;;;;;;43.47;19.98;;;;;;;-1.86;96.73;102978.06;5094174;28;20055;-66
2023/01/25 04:33:02;;;;;;;42.20;20.27;;;;;;;-1.98;97.03;102977.41;5093665;28;20054;-66
2023/01/25 04:35:28;;;;;;;41.25;20.92;;;;;;;-1.98;95.64;102962.50;5094531;28;20055;-66
2023/01/25 04:37:56;;;;;;;37.88;20.08;;;;;;;-1.98;96.87;102962.50;5093460;28;20127;-65
2023/01/25 04:40:22;;;;;;;46.72;21.55;;;;;;;-1.83;96.12;102968.41;5093009;28;20050;-73
2023/01/25 04:42:49;;;;;;;34.22;17.52;;;;;;;-1.95;96.80;102953.69;5091535;28;20066;-65
2023/01/25 04:45:16;;;;;;;27.90;14.80;;;;;;;-1.97;96.48;102961.59;5093504;28;20548;-65
2023/01/25 04:47:42;;;;;;;27.77;14.48;;;;;;;-1.83;96.23;102957.88;5093732;28;20055;-65
2023/01/25 04:50:09;;;;;;;29.90;16.13;;;;;;;-1.77;95.66;102952.50;5094167;28;20044;-65
2023/01/25 04:52:36;;;;;;;39.58;20.83;;;;;;;-1.84;96.26;102957.00;5093924;28;20119;-65
2023/01/25 04:55:03;;;;;;;40.75;22.63;;;;;;;-1.82;96.24;102949.94;5094172;28;20044;-66
2023/01/25 04:57:29;;;;;;;45.42;20.73;;;;;;;-1.93;97.92;102951.88;5078208;28;20046;-66
2023/01/25 04:59:55;;;;;;;33.97;18.17;;;;;;;-1.89;97.18;102945.66;5098806;28;20055;-65
2023/01/25 05:02:22;;;;;;;27.38;16.08;;;;;;;-2.15;98.64;102941.72;5085249;28;20050;-65
2023/01/25 05:04:49;;;;;;;27.73;14.15;;;;;;;-2.25;99.88;102939.25;5076033;28;20075;-65
2023/01/25 05:07:15;;;;;;;30.95;13.90;;;;;;;-2.32;100.00;102941.09;5093030;28;20044;-65
2023/01/25 05:09:41;;;;;;;27.75;13.95;;;;;;;-2.17;100.00;102942.63;5092970;28;20127;-66
2023/01/25 05:12:12;;;;;;;27.50;14.70;;;;;;;-2.22;100.00;102939.19;5072062;28;20467;-66
2023/01/25 05:14:38;;;;;;;26.77;14.55;;;;;;;-2.15;100.00;102936.44;5094093;28;20149;-65
2023/01/25 05:17:06;;;;;;;27.60;14.75;;;;;;;-2.16;100.00;102941.75;5093456;28;20487;-66
2023/01/25 05:19:33;;;;;;;33.50;15.32;;;;;;;-2.09;100.00;102935.50;5093113;28;20495;-66
2023/01/25 05:22:01;;;;;;;27.02;13.85;;;;;;;-2.23;100.00;102926.97;5092596;28;20407;-65
2023/01/25 05:24:30;;;;;;;24.92;15.07;;;;;;;-2.05;100.00;102926.66;5091428;28;20047;-65
2023/01/25 05:27:02;;;;;;;27.48;14.23;;;;;;;-2.08;100.00;102924.06;5091215;28;20055;-66
2023/01/25 05:29:30;;;;;;;32.15;16.73;;;;;;;-1.98;100.00;102927.44;5089370;28;20040;-66
2023/01/25 05:31:57;;;;;;;30.83;15.50;;;;;;;-2.06;100.00;102924.94;5063595;28;20046;-65
2023/01/25 05:34:25;;;;;;;34.00;15.73;;;;;;;-2.12;100.00;102925.03;5091094;28;20074;-65
2023/01/25 05:36:51;;;;;;;31.13;14.52;;;;;;;-2.25;100.00;102923.47;5090847;28;20097;-65
2023/01/25 05:39:19;;;;;;;30.75;15.10;;;;;;;-2.07;100.00;102924.94;5089723;28;20461;-65
2023/01/25 05:41:46;;;;;;;33.42;16.95;;;;;;;-2.00;100.00;102927.44;5091248;28;20048;-65
2023/01/25 05:44:12;;;;;;;31.67;15.68;;;;;;;-2.07;100.00;102923.16;5089841;28;20043;-65
2023/01/25 05:46:39;;;;;;;32.92;14.65;;;;;;;-2.19;100.00;102923.38;5090886;28;20089;-66
2023/01/25 05:49:05;;;;;;;31.45;14.75;;;;;;;-2.18;100.00;102925.97;5089198;28;20044;-65
2023/01/25 05:51:32;;;;;;;27.45;14.23;;;;;;;-2.09;100.00;102930.22;5090591;28;20120;-66
2023/01/25 05:53:58;;;;;;;24.88;14.05;;;;;;;-1.95;99.87;102932.66;5091155;28;20065;-66
2023/01/25 05:56:25;;;;;;;26.63;14.18;;;;;;;-1.86;99.28;102928.06;5090309;28;20137;-65
2023/01/25 05:58:56;;;;;;;29.90;14.48;;;;;;;-1.93;99.67;102926.44;5088753;28;20140;-66
2023/01/25 06:01:24;;;;;;;30.13;15.57;;;;;;;-1.97;100.00;102923.91;5089746;28;20415;-65
2023/01/25 06:03:50;;;;;;;28.13;15.18;;;;;;;-1.94;100.00;102924.72;5089524;28;20044;-66
2023/01/25 06:06:17;;;;;;;34.95;16.35;;;;;;;-1.99;100.00;102923.03;5089247;28;20555;-66
2023/01/25 06:08:44;;;;;;;30.17;16.80;;;;;;;-2.02;100.00;102913.47;5088158;28;20044;-66
2023/01/25 06:11:12;;;;;;;31.10;16.10;;;;;;;-1.97;100.00;102906.34;5088267;28;20055;-68
2023/01/25 06:13:39;;;;;;;31.30;17.15;;;;;;;-2.20;100.00;102911.09;5089597;28;20044;-71
2023/01/25 06:16:07;;;;;;;27.48;15.35;;;;;;;-2.35;100.00;102915.72;5090031;28;20051;-71
2023/01/25 06:18:34;;;;;;;30.38;16.23;;;;;;;-2.26;100.00;102914.72;5090559;28;20514;-68
2023/01/25 06:21:02;;;;;;;32.33;16.55;;;;;;;-2.11;100.00;102905.72;5090811;28;20056;-70
2023/01/25 06:23:29;;;;;;;32.88;18.02;;;;;;;-2.31;100.00;102907.78;5089097;28;20044;-70
2023/01/25 06:26:00;;;;;;;33.58;17.45;;;;;;;-2.52;100.00;102904.56;5089175;28;20073;-69
2023/01/25 06:28:34;;;;;;;33.13;17.00;;;;;;;-2.49;100.00;102904.53;5089615;28;20563;-69
2023/01/25 06:31:10;;;;;;;40.17;18.55;;;;;;;-2.44;100.00;102901.81;5088901;28;20048;-69
2023/01/25 06:33:37;;;;;;;37.55;18.27;;;;;;;-2.50;100.00;102901.94;5089770;28;20052;-69
2023/01/25 06:36:07;;;;;;;32.30;17.25;;;;;;;-2.48;100.00;102908.91;5090282;28;20039;-66
2023/01/25 06:38:33;;;;;;;33.67;17.42;;;;;;;-2.44;100.00;102913.25;5086591;28;20056;-69
2023/01/25 06:41:01;;;;;;;47.38;19.92;;;;;;;-2.34;100.00;102908.69;5071654;28;20036;-70
2023/01/25 06:43:29;;;;;;;39.17;19.15;;;;;;;-2.34;100.00;102912.22;5071250;28;20517;-69
2023/01/25 06:45:58;;;;;;;37.97;19.02;;;;;;;-2.29;100.00;102911.25;5076842;28;20108;-70
2023/01/25 06:48:25;;;;;;;49.67;20.63;;;;;;;-2.23;100.00;102911.19;5089777;28;20075;-70
2023/01/25 06:51:00;;;;;;;49.00;20.55;;;;;;;-2.21;100.00;102898.84;5087038;28;20525;-70
2023/01/25 06:53:29;;;;;;;43.90;20.55;;;;;;;-2.11;100.00;102898.69;5089119;28;20101;-69
2023/01/25 06:56:08;;;;;;;40.53;19.25;;;;;;;-2.18;100.00;102890.94;5092141;28;20044;-70
2023/01/25 06:58:37;;;;;;;48.45;20.00;;;;;;;-2.30;100.00;102884.13;5092527;28;20040;-68
2023/01/25 07:01:09;;;;;;;44.95;20.50;;;;;;;-2.35;100.00;102885.94;5094487;28;20514;-68
2023/01/25 07:03:35;;;;;;;;;;;;;;;-2.39;100.00;102876.34;5094317;28;20126;-69
2023/01/25 07:06:08;;;;;;;37.13;18.52;;;;;;;-2.45;100.00;102879.94;5094033;28;19926;-69
2023/01/25 07:08:35;;;;;;;39.38;20.00;;;;;;;-2.48;100.00;102866.84;5093374;28;20059;-69
2023/01/25 07:11:05;;;;;;;35.72;18.90;;;;;;;-2.39;100.00;102873.72;5095271;28;20411;-70
2023/01/25 07:13:32;;;;;;;33.05;19.00;;;;;;;-2.69;100.00;102877.66;5095912;28;20035;-70
2023/01/25 07:16:02;;;;;;;36.63;19.65;;;;;;;-2.61;100.00;102874.06;5093145;28;20048;-71
2023/01/25 07:18:30;;;;;;;41.88;22.08;;;;;;;-2.47;100.00;102867.72;5091959;28;20050;-71
2023/01/25 07:21:08;;;;;;;48.53;20.55;;;;;;;-2.37;100.00;102864.94;5093789;28;20418;-71
2023/01/25 07:23:36;;;;;;;40.47;20.42;;;;;;;-2.20;100.00;102861.16;5092345;28;20407;-69
2023/01/25 07:26:05;;;;;;;42.28;20.60;;;;;;;-2.33;100.00;102858.72;5094484;28;20044;-70
2023/01/25 07:28:32;;;;;;;41.47;20.90;;;;;;;-2.34;100.00;102870.16;5066134;28;20048;-71
2023/01/25 07:31:05;;;;;;;42.78;21.30;;;;;;;-2.28;100.00;102861.28;5071996;28;20045;-71
2023/01/25 07:33:33;;;;;;;48.03;21.33;;;;;;;-2.17;100.00;102864.59;5075262;28;20044;-71
2023/01/25 07:36:05;;;;;;;39.60;21.58;;;;;;;-2.14;100.00;102851.41;5074367;28;20047;-71
2023/01/25 07:38:32;;;;;;;46.40;20.98;;;;;;;-2.14;100.00;102840.88;5073916;28;20040;-70
2023/01/25 07:40:58;;;;;;;38.80;20.40;;;;;;;-2.31;100.00;102849.94;5074996;28;20063;-72
2023/01/25 07:43:26;;;;;;;47.65;21.20;;;;;;;-2.31;100.00;102849.94;5072935;28;20508;-71
2023/01/25 07:45:52;;;;;;;41.70;20.85;;;;;;;-2.30;100.00;102849.03;5074369;28;20058;-70
2023/01/25 07:48:19;;;;;;;38.45;20.13;;;;;;;-2.35;100.00;102844.72;5091608;28;20048;-71
2023/01/25 07:50:48;;;;;;;38.45;19.83;;;;;;;-2.42;100.00;102844.84;5093051;28;20418;-72
2023/01/25 07:53:15;;;;;;;44.78;21.92;;;;;;;-2.30;100.00;102846.41;5073179;28;20044;-71
2023/01/25 07:55:42;;;;;;;42.03;19.48;;;;;;;-2.46;100.00;102833.53;5091553;28;20048;-71
2023/01/25 07:58:10;;;;;;;45.58;19.48;;;;;;;-2.38;100.00;102833.41;5092061;28;20101;-71
2023/01/25 08:00:36;;;;;;;44.13;21.30;;;;;;;-2.43;100.00;102832.63;5093447;28;20055;-71
2023/01/25 08:03:03;;;;;;;41.28;19.25;;;;;;;-2.51;100.00;102837.09;5093600;28;20407;-72
2023/01/25 08:05:30;;;;;;;42.88;21.48;;;;;;;-2.37;100.00;102835.16;5091352;28;20432;-71
2023/01/25 08:07:56;;;;;;;37.55;19.25;;;;;;;-2.20;100.00;102832.22;5090208;28;20412;-71
2023/01/25 08:10:23;;;;;;;46.53;20.42;;;;;;;-2.22;100.00;102828.75;5092440;28;20070;-72
2023/01/25 08:12:49;;;;;;;63.78;20.77;;;;;;;-2.31;100.00;102834.16;5094605;28;20552;-71
2023/01/25 08:15:16;;;;;;;47.08;19.02;;;;;;;-2.42;100.00;102824.69;5093333;28;20040;-71
2023/01/25 08:17:42;;;;;;;42.97;19.77;;;;;;;-2.46;100.00;102824.78;5092893;28;20050;-71
2023/01/25 08:20:09;;;;;;;46.08;21.25;;;;;;;-2.41;100.00;102820.31;5093125;28;20046;-71
2023/01/25 08:22:36;;;;;;;44.53;22.02;;;;;;;-2.45;100.00;102816.84;5092085;28;20040;-71
2023/01/25 08:25:03;;;;;;;53.60;22.00;;;;;;;-2.41;100.00;102815.03;5093768;28;20500;-72
2023/01/25 08:27:29;;;;;;;45.35;20.65;;;;;;;-2.34;100.00;102809.69;5092613;28;20479;-72
2023/01/25 08:29:56;;;;;;;57.15;22.45;;;;;;;-2.36;100.00;102815.84;5093005;28;25178;-72
2023/01/25 08:32:23;;;;;;;40.85;20.48;;;;;;;-2.18;100.00;102812.91;5093801;28;20542;-70
2023/01/25 08:34:49;;;;;;;56.80;22.05;;;;;;;-2.25;100.00;102813.91;5092204;28;20411;-70
2023/01/25 08:37:16;;;;;;;45.28;21.80;;;;;;;-2.22;100.00;102808.59;5091427;28;20408;-72
2023/01/25 08:39:42;;;;;;;45.47;20.27;;;;;;;-2.26;100.00;102804.28;5092543;28;20075;-72
2023/01/25 08:42:09;;;;;;;39.17;19.92;;;;;;;-2.39;100.00;102816.75;5093955;28;20070;-72
2023/01/25 08:44:36;;;;;;;40.15;18.80;;;;;;;-2.49;100.00;102814.31;5093787;28;20040;-72
2023/01/25 08:47:03;;;;;;;36.65;17.75;;;;;;;-2.27;100.00;102810.41;5077724;28;20059;-71
2023/01/25 08:49:30;;;;;;;44.83;19.20;;;;;;;-2.38;100.00;102804.47;5072872;28;20082;-71
2023/01/25 08:51:57;;;;;;;38.80;19.85;;;;;;;-2.43;100.00;102808.97;5073184;28;20056;-70
2023/01/25 08:54:24;;;;;;;40.10;20.33;;;;;;;-2.51;100.00;102797.69;5073743;28;20055;-71
2023/01/25 08:56:51;;;;;;;40.50;19.42;;;;;;;-2.56;100.00;102797.78;5085998;28;20063;-71
2023/01/25 08:59:17;;;;;;;44.97;19.80;;;;;;;-2.52;100.00;102796.81;5091522;28;20488;-70
2023/01/25 09:01:44;;;;;;;37.95;19.73;;;;;;;-2.54;100.00;102798.63;5090930;28;20055;-70
2023/01/25 09:04:10;;;;;;;51.22;21.80;;;;;;;-2.48;100.00;102811.66;5091295;28;20487;-68
2023/01/25 09:06:37;;;;;;;42.80;20.83;;;;;;;-2.42;100.00;102805.44;5091469;28;20043;-72
2023/01/25 09:09:03;;;;;;;45.97;20.70;;;;;;;-2.29;100.00;102801.72;5090908;28;20078;-71
2023/01/25 09:11:32;;;;;;;43.85;19.90;;;;;;;-2.27;100.00;102802.53;5093631;28;20048;-70
2023/01/25 09:13:59;;;;;;;41.10;20.55;;;;;;;-2.24;100.00;102799.00;5092850;28;20082;-70
2023/01/25 09:16:27;;;;;;;43.78;19.48;;;;;;;-2.15;100.00;102799.69;5091519;28;20040;-71
2023/01/25 09:18:56;;;;;;;39.95;19.88;;;;;;;-2.10;100.00;102803.13;5090729;28;20052;-70
2023/01/25 09:21:23;;;;;;;40.83;21.10;;;;;;;-2.08;100.00;102804.84;5091466;28;20063;-71
2023/01/25 09:23:52;;;;;;;38.58;18.30;;;;;;;-2.50;100.00;102802.94;5091583;28;20419;-72
2023/01/25 09:26:37;;;;;;;40.88;19.58;;;;;;;-2.45;100.00;102798.44;5092027;28;20046;-69
2023/01/25 09:29:04;;;;;;;40.65;19.33;;;;;;;-2.43;100.00;102794.06;5091835;28;20044;-70
2023/01/25 09:31:30;;;;;;;45.13;21.75;;;;;;;-2.33;100.00;102793.00;5091705;28;20048;-70
2023/01/25 09:33:57;;;;;;;43.10;21.73;;;;;;;-2.33;100.00;102784.25;5092627;28;20127;-70
2023/01/25 09:36:24;;;;;;;44.95;20.42;;;;;;;-2.52;100.00;102788.06;5093159;28;20044;-70
2023/01/25 09:38:51;;;;;;;46.97;20.92;;;;;;;-2.38;100.00;102781.69;5092592;28;20115;-71
2023/01/25 09:41:42;;;;;;;46.88;21.50;;;;;;;-2.45;100.00;102781.81;5092856;28;20491;-69
2023/01/25 09:44:30;;;;;;;37.53;16.90;;;;;;;-2.34;100.00;102788.66;5090930;28;20055;-70
2023/01/25 09:47:14;;;;;;;51.58;22.45;;;;;;;-2.45;100.00;102773.94;5071956;28;20076;-72
2023/01/25 09:50:02;;;;;;;40.53;21.05;;;;;;;-2.58;100.00;102773.25;5071978;28;20048;-70
2023/01/25 09:52:29;;;;;;;39.83;18.92;;;;;;;-2.53;100.00;102763.56;5071750;28;20075;-71
2023/01/25 09:54:56;;;;;;;41.05;21.10;;;;;;;-2.47;100.00;102771.34;5070702;28;20041;-71
2023/01/25 10:01:47;;;;;;;53.42;21.58;;;;;;;-2.59;100.00;102766.28;5091247;28;20058;-72
2023/01/25 10:04:44;;;;;;;47.03;21.02;;;;;;;-2.68;100.00;102769.94;5089040;28;20498;-72
2023/01/25 10:07:22;;;;;;;46.15;21.10;;;;;;;-2.72;100.00;102760.38;5090159;28;20040;-71
2023/01/25 10:09:56;;;;;;;47.78;20.80;;;;;;;-2.86;100.00;102762.31;5090005;28;20047;-71
2023/01/25 10:12:24;;;;;;;52.63;23.08;;;;;;;-2.83;100.00;102757.03;5089947;28;20039;-72
2023/01/25 10:14:51;;;;;;;46.35;20.17;;;;;;;-2.93;100.00;102756.28;5089085;28;20036;-71
2023/01/25 10:17:37;;;;;;;49.92;22.65;;;;;;;-2.91;100.00;102749.28;5089927;28;20071;-71
2023/01/25 10:20:14;;;;;;;51.47;23.08;;;;;;;-2.88;100.00;102745.75;5089933;28;20064;-71
2023/01/25 10:23:22;;;;;;;54.25;21.45;;;;;;;-2.90;100.00;102744.88;5089819;28;20514;-70
2023/01/25 10:25:57;;;;;;;48.97;22.00;;;;;;;-2.72;100.00;102739.38;5088832;28;20051;-70
2023/01/25 10:28:47;;;;;;;46.85;22.30;;;;;;;-2.91;100.00;102733.53;5090139;28;20054;-70
2023/01/25 10:31:19;;;;;;;52.38;23.98;;;;;;;-2.76;100.00;102723.66;5088109;28;20510;-72
2023/01/25 10:33:47;;;;;;;65.50;24.85;;;;;;;-2.65;100.00;102719.97;5089747;28;20048;-69
2023/01/25 10:36:19;;;;;;;55.90;25.20;;;;;;;-2.70;100.00;102720.94;5090029;28;20044;-70
2023/01/25 10:38:48;;;;;;;56.75;23.98;;;;;;;-2.90;100.00;102708.13;5090005;28;20048;-69
2023/01/25 10:41:27;;;;;;;49.97;24.08;;;;;;;-2.91;100.00;102709.03;5091798;28;20055;-69
2023/01/25 10:46:40;;;;;;;58.28;25.33;;;;;;;-2.53;100.00;102700.50;5091406;28;20040;-70
2023/01/25 10:49:25;;;;;;;56.30;27.27;;;;;;;-2.52;100.00;102699.59;5091021;28;20125;-70
2023/01/25 10:51:52;;;;;;;60.70;27.60;;;;;;;-2.53;100.00;102697.88;5089904;28;20051;-70
2023/01/25 10:54:21;;;;;;;60.42;28.05;;;;;;;-2.58;100.00;102699.69;5091600;28;20048;-69
2023/01/25 10:56:48;;;;;;;62.63;27.52;;;;;;;-2.54;100.00;102693.50;5091152;28;20044;-71
2023/01/25 10:59:22;;;;;;;61.30;29.33;;;;;;;-2.39;100.00;102680.06;5091619;28;20044;-69
2023/01/25 11:01:48;;;;;;;72.00;31.58;;;;;;;-2.59;100.00;102683.06;5091652;28;20127;-71
2023/01/25 11:04:23;;;;;;;70.28;29.75;;;;;;;-2.67;100.00;102684.97;5091194;28;20047;-69
2023/01/25 11:06:51;;;;;;;67.35;29.10;;;;;;;-2.78;100.00;102678.19;5090173;28;20138;-66
2023/01/25 11:09:20;;;;;;;65.97;28.85;;;;;;;-2.72;100.00;102675.41;5091949;28;20074;-68
2023/01/25 11:11:55;;;;;;;60.53;27.60;;;;;;;-2.70;100.00;102665.75;5114786;28;20035;-66
2023/01/25 11:14:25;;;;;;;68.97;29.92;;;;;;;-2.70;100.00;102664.00;5114626;28;20024;-67
2023/01/25 11:16:54;;;;;;;65.78;30.20;;;;;;;-2.70;100.00;102658.75;5114482;28;20100;-68
2023/01/25 11:19:23;;;;;;;64.57;29.00;;;;;;;-2.41;100.00;102659.97;5114912;28;20112;-66
2023/01/25 11:21:52;;;;;;;65.68;30.52;;;;;;;-2.34;100.00;102666.84;5114527;28;20100;-64
2023/01/25 11:24:18;;;;;;;68.57;29.10;;;;;;;-2.28;100.00;102657.97;5113999;28;20059;-68